Time;durP1;ratioP1;P1;durP2;ratioP2;P2;SDS_P1;SDS_P2;PMS_P1;PMS_P2;Temp;Humidity;BMP_temperature;BMP_pressure;BME280_temperature;BME280_humidity;BME280_pressure;Samples;Min_cycle;Max_cycle;Signal;HPM_P1;HPM_P2
2023/08/20 00:00:04;;;;;;;;;;;16.20;99.90;;;;;;5037801;28;19965;-73
2023/08/20 00:02:32;;;;;;;;;;;16.20;99.90;;;;;;5037892;28;19925;-73
2023/08/20 00:04:58;;;;;;;;;;;16.20;99.90;;;;;;5036393;28;19929;-73
2023/08/20 00:07:24;;;;;;;;;;;16.20;99.90;;;;;;5069710;28;20021;-73
2023/08/20 00:09:49;;;;;;;;;;;16.10;99.90;;;;;;5033932;28;19973;-73
2023/08/20 00:12:15;;;;;;;;;;;16.10;99.90;;;;;;5037566;28;19929;-73
2023/08/20 00:15:06;;;;;;;;;;;16.10;99.90;;;;;;5036852;28;20015;-73
2023/08/20 00:17:35;;;;;;;;;;;16.10;99.90;;;;;;5068576;28;19929;-73
2023/08/20 00:20:04;;;;;;;;;;;16.10;99.90;;;;;;5033748;28;20337;-73
2023/08/20 00:22:30;;;;;;;;;;;16.10;99.90;;;;;;5038128;28;19925;-73
2023/08/20 00:24:56;;;;;;;;;;;16.10;99.90;;;;;;5064598;28;20377;-73
2023/08/20 00:27:21;;;;;;;;;;;16.00;99.90;;;;;;5027962;28;20364;-73
2023/08/20 00:29:47;;;;;;;;;;;16.00;99.90;;;;;;5033532;28;19929;-73
2023/08/20 00:32:14;;;;;;;;;;;16.00;99.90;;;;;;5031778;28;19940;-73
2023/08/20 00:34:40;;;;;;;;;;;16.00;99.90;;;;;;5035867;28;20028;-73
2023/08/20 00:37:05;;;;;;;;;;;16.00;99.90;;;;;;5031631;28;20474;-74
2023/08/20 00:39:31;;;;;;;;;;;16.00;99.90;;;;;;5035400;28;20486;-73
2023/08/20 00:41:56;;;;;;;;;;;16.00;99.90;;;;;;5033420;28;19983;-73
2023/08/20 00:44:22;;;;;;;;;;;15.90;99.90;;;;;;5033657;28;20020;-74
2023/08/20 00:46:49;;;;;;;;;;;16.00;99.90;;;;;;5034017;28;19925;-73
2023/08/20 00:49:15;;;;;;;;;;;15.90;99.90;;;;;;5033466;28;19992;-74
2023/08/20 00:51:41;;;;;;;;;;;15.90;99.90;;;;;;5030117;28;19972;-73
2023/08/20 00:54:06;;;;;;;;;;;15.90;99.90;;;;;;5039214;28;19971;-74
2023/08/20 00:56:32;;;;;;;;;;;15.90;99.90;;;;;;5033702;28;20500;-74
2023/08/20 00:58:58;;;;;;;;;;;15.80;99.90;;;;;;5046167;28;19967;-73
2023/08/20 01:01:23;;;;;;;;;;;15.80;99.90;;;;;;5040882;28;19929;-74
2023/08/20 01:03:49;;;;;;;;;;;15.80;99.90;;;;;;5043615;28;19989;-73
2023/08/20 01:06:33;;;;;;;;;;;15.80;99.90;;;;;;5042610;28;19925;-73
2023/08/20 01:09:07;;;;;;;;;;;15.70;99.90;;;;;;5035255;28;19971;-73
2023/08/20 01:11:42;;;;;;;;;;;15.70;99.90;;;;;;5048007;28;19933;-73
2023/08/20 01:14:16;;;;;;;;;;;15.70;99.90;;;;;;5038645;28;19958;-73
2023/08/20 01:16:42;;;;;;;;;;;15.70;99.90;;;;;;5037018;28;19948;-74
2023/08/20 01:19:10;;;;;;;;;;;15.70;99.90;;;;;;5036356;28;20392;-74
2023/08/20 01:21:39;;;;;;;;;;;15.70;99.90;;;;;;5063145;28;19929;-73
2023/08/20 01:24:09;;;;;;;;;;;15.60;99.90;;;;;;5034877;28;19967;-74
2023/08/20 01:26:40;;;;;;;;;;;15.60;99.90;;;;;;5051363;28;19929;-74
2023/08/20 01:29:06;;;;;;;;;;;15.60;99.90;;;;;;5066137;28;19932;-74
2023/08/20 01:31:32;;;;;;;;;;;15.70;99.90;;;;;;5033139;28;19929;-74
2023/08/20 01:33:58;;;;;;;;;;;15.60;99.90;;;;;;5048248;28;20164;-74
2023/08/20 01:36:23;;;;;;;;;;;15.60;99.90;;;;;;5037393;28;19933;-73
2023/08/20 01:38:49;;;;;;;;;;;15.60;99.90;;;;;;5034027;28;19986;-73
2023/08/20 01:41:14;;;;;;;;;;;15.60;99.90;;;;;;5036230;28;19935;-73
2023/08/20 01:43:40;;;;;;;;;;;15.50;99.90;;;;;;5067275;28;19925;-74
2023/08/20 01:46:06;;;;;;;;;;;15.60;99.90;;;;;;5045874;28;19964;-73
2023/08/20 01:48:32;;;;;;;;;;;15.60;99.90;;;;;;5033610;28;19975;-73
2023/08/20 01:50:58;;;;;;;;;;;15.60;99.90;;;;;;5041761;28;19925;-73
2023/08/20 01:53:23;;;;;;;;;;;15.60;99.90;;;;;;5038514;28;19936;-73
2023/08/20 01:55:49;;;;;;;;;;;15.60;99.90;;;;;;5039361;28;20019;-73
2023/08/20 01:58:15;;;;;;;;;;;15.60;99.90;;;;;;5037784;28;19925;-73
2023/08/20 02:00:40;;;;;;;;;;;15.60;99.90;;;;;;5040849;28;19941;-73
2023/08/20 02:03:06;;;;;;;;;;;15.50;99.90;;;;;;5039918;28;19926;-73
2023/08/20 02:05:32;;;;;;;;;;;15.50;99.90;;;;;;5038874;28;19932;-73
2023/08/20 02:07:57;;;;;;;;;;;15.50;99.90;;;;;;5022055;28;19979;-73
2023/08/20 02:10:23;;;;;;;;;;;15.40;99.90;;;;;;5032508;28;20393;-73
2023/08/20 02:12:48;;;;;;;;;;;15.40;99.90;;;;;;5037234;28;19925;-74
2023/08/20 02:15:14;;;;;;;;;;;15.40;99.90;;;;;;5072305;28;19952;-74
2023/08/20 02:17:39;;;;;;;;;;;15.40;99.90;;;;;;5036990;28;20309;-74
2023/08/20 02:20:06;;;;;;;;;;;15.40;99.90;;;;;;5037930;28;20068;-74
2023/08/20 02:22:34;;;;;;;;;;;15.30;99.90;;;;;;5038634;28;20372;-74
2023/08/20 02:24:59;;;;;;;;;;;15.30;99.90;;;;;;5039127;28;19931;-74
2023/08/20 02:27:25;;;;;;;;;;;15.30;99.90;;;;;;5031925;28;20000;-73
2023/08/20 02:29:51;;;;;;;;;;;15.40;99.90;;;;;;5035145;28;19936;-74
2023/08/20 02:32:17;;;;;;;;;;;15.40;99.90;;;;;;5032376;28;20122;-74
2023/08/20 02:34:43;;;;;;;;;;;15.50;99.90;;;;;;5041353;28;20043;-74
2023/08/20 02:37:08;;;;;;;;;;;15.50;99.90;;;;;;5019619;28;20023;-74
2023/08/20 02:39:34;;;;;;;;;;;15.50;99.90;;;;;;5030208;28;19965;-74
2023/08/20 02:41:59;;;;;;;;;;;15.50;99.90;;;;;;5043703;28;19929;-74
2023/08/20 02:44:25;;;;;;;;;;;15.50;99.90;;;;;;5039641;28;19932;-74
2023/08/20 02:46:51;;;;;;;;;;;15.40;99.90;;;;;;5019231;28;19925;-74
2023/08/20 02:49:16;;;;;;;;;;;15.40;99.90;;;;;;5019745;28;20401;-74
2023/08/20 02:51:45;;;;;;;;;;;15.40;99.90;;;;;;5035394;28;20150;-74
2023/08/20 02:54:11;;;;;;;;;;;15.30;99.90;;;;;;5048222;28;19925;-74
2023/08/20 02:56:36;;;;;;;;;;;15.30;99.90;;;;;;5034142;28;21273;-74
2023/08/20 02:59:02;;;;;;;;;;;15.20;99.90;;;;;;5035338;28;19924;-74
2023/08/20 03:01:27;;;;;;;;;;;15.20;99.90;;;;;;5035852;28;19933;-74
2023/08/20 03:03:53;;;;;;;;;;;15.20;99.90;;;;;;5038366;28;19995;-74
2023/08/20 03:06:18;;;;;;;;;;;15.20;99.90;;;;;;5038371;28;20495;-74
2023/08/20 03:08:45;;;;;;;;;;;15.10;99.90;;;;;;5063912;28;19932;-74
2023/08/20 03:11:10;;;;;;;;;;;15.10;99.90;;;;;;5034680;28;19940;-73
2023/08/20 03:13:36;;;;;;;;;;;15.10;99.90;;;;;;5062563;28;19925;-74
2023/08/20 03:16:03;;;;;;;;;;;15.10;99.90;;;;;;5038813;28;19926;-74
2023/08/20 03:18:28;;;;;;;;;;;15.10;99.90;;;;;;5033709;28;19929;-74
2023/08/20 03:20:55;;;;;;;;;;;15.10;99.90;;;;;;5033626;28;19940;-74
2023/08/20 03:23:21;;;;;;;;;;;15.10;99.90;;;;;;5034521;28;19925;-74
2023/08/20 03:25:46;;;;;;;;;;;15.10;99.90;;;;;;5031763;28;20266;-74
2023/08/20 03:28:12;;;;;;;;;;;15.00;99.90;;;;;;5034252;28;19929;-73
2023/08/20 03:30:37;;;;;;;;;;;15.00;99.90;;;;;;5048816;28;19933;-73
2023/08/20 03:33:03;;;;;;;;;;;15.10;99.90;;;;;;5032784;28;19944;-73
2023/08/20 03:35:29;;;;;;;;;;;15.10;99.90;;;;;;5033527;28;20007;-74
2023/08/20 03:37:54;;;;;;;;;;;15.00;99.90;;;;;;5036111;28;19925;-74
2023/08/20 03:40:20;;;;;;;;;;;15.00;99.90;;;;;;5032666;28;20004;-74
2023/08/20 03:42:45;;;;;;;;;;;15.00;99.90;;;;;;5031300;28;19930;-74
2023/08/20 03:45:11;;;;;;;;;;;15.00;99.90;;;;;;5035821;28;19947;-74
2023/08/20 03:47:36;;;;;;;;;;;15.00;99.90;;;;;;5039852;28;20020;-74
2023/08/20 03:50:03;;;;;;;;;;;15.00;99.90;;;;;;5035499;28;20408;-74
2023/08/20 03:52:29;;;;;;;;;;;15.00;99.90;;;;;;5031638;28;19959;-74
2023/08/20 03:54:54;;;;;;;;;;;15.00;99.90;;;;;;5048880;28;19925;-74
2023/08/20 03:57:20;;;;;;;;;;;15.00;99.90;;;;;;5031891;28;20379;-74
2023/08/20 03:59:45;;;;;;;;;;;15.00;99.90;;;;;;5036226;28;19925;-74
2023/08/20 04:02:11;;;;;;;;;;;15.00;99.90;;;;;;5046674;28;20440;-74
2023/08/20 04:04:37;;;;;;;;;;;15.00;99.90;;;;;;5035369;28;19925;-74
2023/08/20 04:07:02;;;;;;;;;;;15.00;99.90;;;;;;5032345;28;19925;-74
2023/08/20 04:09:28;;;;;;;;;;;15.00;99.90;;;;;;5033725;28;19930;-74
2023/08/20 04:11:54;;;;;;;;;;;15.00;99.90;;;;;;5064503;28;19956;-74
2023/08/20 04:14:19;;;;;;;;;;;15.00;99.90;;;;;;5032826;28;19974;-74
2023/08/20 04:16:45;;;;;;;;;;;15.00;99.90;;;;;;5033026;28;19936;-74
2023/08/20 04:19:11;;;;;;;;;;;15.00;99.90;;;;;;5036420;28;19952;-74
2023/08/20 04:21:36;;;;;;;;;;;15.00;99.90;;;;;;5035506;28;21990;-73
2023/08/20 04:24:02;;;;;;;;;;;15.00;99.90;;;;;;5047048;28;19936;-74
2023/08/20 04:26:28;;;;;;;;;;;15.00;99.90;;;;;;5033618;28;19925;-74
2023/08/20 04:28:53;;;;;;;;;;;15.00;99.90;;;;;;5032831;28;19929;-74
2023/08/20 04:31:19;;;;;;;;;;;15.00;99.90;;;;;;5032887;28;19929;-74
2023/08/20 04:33:45;;;;;;;;;;;15.00;99.90;;;;;;5034209;28;19929;-74
2023/08/20 04:36:11;;;;;;;;;;;15.00;99.90;;;;;;5068579;28;19983;-74
2023/08/20 04:38:36;;;;;;;;;;;15.00;99.90;;;;;;5036161;28;19933;-74
2023/08/20 04:41:02;;;;;;;;;;;15.00;99.90;;;;;;5038124;28;19933;-74
2023/08/20 04:43:27;;;;;;;;;;;15.00;99.90;;;;;;5041166;28;19925;-73
2023/08/20 04:45:53;;;;;;;;;;;15.00;99.90;;;;;;5038933;28;19929;-74
2023/08/20 04:48:19;;;;;;;;;;;15.00;99.90;;;;;;5033720;28;19929;-74
2023/08/20 04:50:44;;;;;;;;;;;15.00;99.90;;;;;;5041834;28;19932;-74
2023/08/20 04:53:10;;;;;;;;;;;15.00;99.90;;;;;;5035006;28;20292;-74
2023/08/20 04:55:35;;;;;;;;;;;15.10;99.90;;;;;;5036037;28;19947;-74
2023/08/20 04:58:01;;;;;;;;;;;15.10;99.90;;;;;;5021228;28;19939;-74
2023/08/20 05:00:26;;;;;;;;;;;15.10;99.90;;;;;;5040343;28;19932;-74
2023/08/20 05:02:52;;;;;;;;;;;15.20;99.90;;;;;;5038553;28;19955;-74
2023/08/20 05:05:18;;;;;;;;;;;15.20;99.90;;;;;;5049471;28;19925;-74
2023/08/20 05:07:44;;;;;;;;;;;15.30;99.90;;;;;;5039197;28;19933;-74
2023/08/20 05:10:09;;;;;;;;;;;15.50;99.90;;;;;;5035981;28;19929;-74
2023/08/20 05:12:36;;;;;;;;;;;15.80;99.90;;;;;;5035870;28;19929;-74
2023/08/20 05:15:01;;;;;;;;;;;16.10;99.90;;;;;;5035699;28;19951;-74
2023/08/20 05:17:27;;;;;;;;;;;16.50;99.90;;;;;;5034201;28;19925;-74
2023/08/20 05:19:52;;;;;;;;;;;16.60;99.90;;;;;;5038079;28;20414;-74
2023/08/20 05:22:18;;;;;;;;;;;16.70;99.90;;;;;;5033006;28;19963;-74
2023/08/20 05:24:43;;;;;;;;;;;16.60;99.90;;;;;;5053755;28;19944;-74
2023/08/20 05:27:19;;;;;;;;;;;16.50;99.90;;;;;;5037264;28;19960;-74
2023/08/20 05:29:45;;;;;;;;;;;16.40;99.90;;;;;;5036638;28;20485;-75
2023/08/20 05:32:11;;;;;;;;;;;16.40;99.90;;;;;;5036421;28;19929;-73
2023/08/20 05:34:36;;;;;;;;;;;16.40;99.90;;;;;;5066604;28;19929;-74
2023/08/20 05:37:03;;;;;;;;;;;16.40;99.90;;;;;;5035093;28;19925;-74
2023/08/20 05:39:30;;;;;;;;;;;16.40;99.90;;;;;;5033404;28;19980;-74
2023/08/20 05:41:56;;;;;;;;;;;16.50;99.90;;;;;;5035896;28;19955;-74
2023/08/20 05:44:21;;;;;;;;;;;16.50;99.90;;;;;;5035187;28;19930;-74
2023/08/20 05:46:47;;;;;;;;;;;16.40;99.90;;;;;;5038715;28;19926;-74
2023/08/20 05:49:16;;;;;;;;;;;16.40;99.90;;;;;;5049922;28;20564;-75
2023/08/20 05:51:42;;;;;;;;;;;16.40;99.90;;;;;;5067390;28;19924;-74
2023/08/20 05:54:07;;;;;;;;;;;16.50;99.90;;;;;;5038390;28;19929;-74
2023/08/20 05:56:33;;;;;;;;;;;16.50;99.90;;;;;;5039471;28;19998;-74
2023/08/20 05:58:59;;;;;;;;;;;16.60;99.90;;;;;;5037779;28;19925;-74
2023/08/20 06:01:24;;;;;;;;;;;16.60;99.90;;;;;;5038269;28;19925;-74
2023/08/20 06:03:50;;;;;;;;;;;16.70;99.90;;;;;;5039254;28;19925;-75
2023/08/20 06:06:15;;;;;;;;;;;16.80;99.90;;;;;;5065669;28;19936;-74
2023/08/20 06:08:41;;;;;;;;;;;16.80;99.90;;;;;;5036706;28;21572;-74
2023/08/20 06:11:06;;;;;;;;;;;16.80;99.90;;;;;;5039877;28;19936;-74
2023/08/20 06:13:32;;;;;;;;;;;16.80;99.90;;;;;;5038623;28;19972;-74
2023/08/20 06:15:57;;;;;;;;;;;16.80;99.90;;;;;;5020793;28;19929;-75
2023/08/20 06:18:23;;;;;;;;;;;16.80;99.90;;;;;;5037213;28;19975;-74
2023/08/20 06:20:48;;;;;;;;;;;16.80;99.90;;;;;;5040270;28;19932;-74
2023/08/20 06:23:14;;;;;;;;;;;16.80;99.90;;;;;;5029754;28;20479;-74
2023/08/20 06:25:39;;;;;;;;;;;16.80;99.90;;;;;;5034017;28;19935;-74
2023/08/20 06:28:05;;;;;;;;;;;16.80;99.90;;;;;;5036496;28;19932;-74
2023/08/20 06:30:31;;;;;;;;;;;16.90;99.90;;;;;;5033639;28;20451;-74
2023/08/20 06:32:56;;;;;;;;;;;16.90;99.90;;;;;;5065970;28;20035;-74
2023/08/20 06:35:22;;;;;;;;;;;16.90;99.90;;;;;;5034208;28;19968;-74
2023/08/20 06:37:47;;;;;;;;;;;17.00;99.90;;;;;;5034303;28;20376;-74
2023/08/20 06:40:13;;;;;;;;;;;17.10;99.90;;;;;;5035761;28;19955;-74
2023/08/20 06:42:39;;;;;;;;;;;17.10;99.90;;;;;;5048125;28;19925;-74
2023/08/20 06:45:05;;;;;;;;;;;17.20;99.90;;;;;;5037402;28;19925;-74
2023/08/20 06:47:31;;;;;;;;;;;17.70;99.90;;;;;;5034759;28;19928;-74
2023/08/20 06:49:56;;;;;;;;;;;18.30;99.90;;;;;;5041598;28;20400;-74
2023/08/20 06:52:22;;;;;;;;;;;18.80;99.90;;;;;;5034319;28;19926;-74
2023/08/20 06:54:47;;;;;;;;;;;19.00;99.90;;;;;;5065186;28;19932;-74
2023/08/20 06:57:13;;;;;;;;;;;19.10;99.90;;;;;;5032361;28;19925;-74
2023/08/20 06:59:38;;;;;;;;;;;19.30;99.90;;;;;;5036260;28;19936;-74
2023/08/20 07:02:04;;;;;;;;;;;19.50;99.90;;;;;;5035859;28;19957;-74
2023/08/20 07:04:29;;;;;;;;;;;19.40;99.90;;;;;;5068800;28;19929;-74
2023/08/20 07:06:55;;;;;;;;;;;19.40;99.90;;;;;;5031353;28;20334;-74
2023/08/20 07:09:21;;;;;;;;;;;19.50;99.90;;;;;;5031325;28;19932;-74
2023/08/20 07:11:46;;;;;;;;;;;19.60;99.90;;;;;;5041846;28;19925;-74
2023/08/20 07:14:12;;;;;;;;;;;19.80;99.90;;;;;;5032262;28;19972;-74
2023/08/20 07:16:37;;;;;;;;;;;19.90;99.90;;;;;;5032195;28;19932;-74
2023/08/20 07:19:03;;;;;;;;;;;20.10;99.90;;;;;;5032243;28;19980;-74
2023/08/20 07:21:28;;;;;;;;;;;20.40;99.90;;;;;;5034592;28;19925;-74
2023/08/20 07:23:54;;;;;;;;;;;20.60;99.90;;;;;;5035254;28;19972;-74
2023/08/20 07:26:20;;;;;;;;;;;20.90;99.90;;;;;;5036647;28;19929;-74
2023/08/20 07:28:58;;;;;;;;;;;21.40;99.90;;;;;;5036921;28;19926;-74
2023/08/20 07:31:23;;;;;;;;;;;22.10;99.90;;;;;;5030194;28;19929;-74
2023/08/20 07:33:49;;;;;;;;;;;22.70;99.90;;;;;;5034634;28;19988;-74
2023/08/20 07:36:16;;;;;;;;;;;23.30;99.90;;;;;;5035730;28;19976;-74
2023/08/20 07:38:44;;;;;;;;;;;23.90;99.90;;;;;;5029711;28;19936;-74
2023/08/20 07:41:13;;;;;;;;;;;24.20;99.90;;;;;;5047137;28;19929;-74
2023/08/20 07:43:39;;;;;;;;;;;24.60;99.90;;;;;;5038629;28;19967;-74
2023/08/20 07:46:05;;;;;;;;;;;24.90;99.90;;;;;;5038656;28;19932;-74
2023/08/20 07:48:31;;;;;;;;;;;25.20;99.90;;;;;;5038436;28;19929;-73
2023/08/20 07:50:57;;;;;;;;;;;25.60;99.90;;;;;;5036943;28;19975;-74
2023/08/20 07:53:22;;;;;;;;;;;25.80;99.90;;;;;;5034531;28;19937;-82
2023/08/20 07:55:48;;;;;;;;;;;26.00;99.90;;;;;;5025486;28;19928;-79
2023/08/20 07:58:13;;;;;;;;;;;26.30;99.90;;;;;;5002911;28;19929;-76
2023/08/20 08:00:39;;;;;;;;;;;26.50;99.90;;;;;;5035145;28;19945;-77
2023/08/20 08:03:04;;;;;;;;;;;26.70;99.90;;;;;;5034453;28;19947;-83
2023/08/20 08:05:30;;;;;;;;;;;26.90;99.90;;;;;;5033926;28;19925;-83
2023/08/20 08:07:56;;;;;;;;;;;27.00;99.90;;;;;;5031831;28;19929;-83
2023/08/20 08:10:21;;;;;;;;;;;27.00;99.90;;;;;;5073832;28;19925;-83
2023/08/20 08:12:47;;;;;;;;;;;27.20;99.90;;;;;;5026789;28;20010;-83
2023/08/20 08:15:13;;;;;;;;;;;27.30;99.90;;;;;;5042862;28;19925;-83
2023/08/20 08:17:40;;;;;;;;;;;27.50;99.90;;;;;;5059297;28;20163;-83
2023/08/20 08:20:06;;;;;;;;;;;27.50;99.90;;;;;;5044115;28;19925;-82
2023/08/20 08:22:32;;;;;;;;;;;27.50;99.90;;;;;;5031504;28;19933;-78
2023/08/20 08:24:57;;;;;;;;;;;27.50;99.90;;;;;;5060742;28;19990;-82
2023/08/20 08:27:23;;;;;;;;;;;27.60;99.90;;;;;;5027512;28;19929;-82
2023/08/20 08:29:49;;;;;;;;;;;27.60;99.90;;;;;;5054499;28;20368;-82
2023/08/20 08:32:14;;;;;;;;;;;27.60;99.90;;;;;;5025685;28;19929;-82
2023/08/20 08:34:40;;;;;;;;;;;27.80;99.90;;;;;;5059629;28;20162;-82
2023/08/20 08:37:05;;;;;;;;;;;27.80;99.90;;;;;;5069900;28;19929;-82
2023/08/20 08:39:32;;;;;;;;;;;27.90;99.90;;;;;;5032894;28;20535;-82
2023/08/20 08:42:04;;;;;;;;;;;28.00;99.90;;;;;;5010520;28;20585;-82
2023/08/20 08:44:33;;;;;;;;;;;28.10;99.90;;;;;;5055866;28;19924;-83
2023/08/20 08:47:00;;;;;;;;;;;28.10;99.90;;;;;;5025351;28;20351;-83
2023/08/20 08:49:26;;;;;;;;;;;28.10;99.90;;;;;;5052331;28;19943;-81
2023/08/20 08:51:53;;;;;;;;;;;28.00;99.90;;;;;;5076436;28;20020;-82
2023/08/20 08:54:19;;;;;;;;;;;28.20;99.90;;;;;;5025911;28;20032;-83
2023/08/20 08:56:45;;;;;;;;;;;28.30;99.90;;;;;;5041522;28;19941;-83
2023/08/20 08:59:11;;;;;;;;;;;28.30;99.90;;;;;;5058646;28;19929;-83
2023/08/20 09:01:40;;;;;;;;;;;28.30;99.90;;;;;;5005898;28;19929;-83
2023/08/20 09:04:06;;;;;;;;;;;28.20;99.90;;;;;;5042801;28;19932;-83
2023/08/20 09:06:48;;;;;;;;;;;28.20;99.90;;;;;;5045950;28;19929;-82
2023/08/20 09:09:13;;;;;;;;;;;28.20;99.90;;;;;;5043162;28;19931;-81
2023/08/20 09:11:39;;;;;;;;;;;28.10;99.90;;;;;;5043411;28;20019;-85
2023/08/20 09:14:05;;;;;;;;;;;28.00;99.90;;;;;;5041340;28;19932;-82
2023/08/20 09:16:31;;;;;;;;;;;28.00;99.90;;;;;;5076961;28;19925;-82
2023/08/20 09:18:59;;;;;;;;;;;28.10;99.90;;;;;;5035259;28;19926;-82
2023/08/20 09:21:28;;;;;;;;;;;28.30;99.90;;;;;;5061045;28;19929;-77
2023/08/20 09:23:54;;;;;;;;;;;28.50;99.90;;;;;;5068159;28;19933;-80
2023/08/20 09:26:19;;;;;;;;;;;28.60;99.90;;;;;;5039958;28;19952;-80
2023/08/20 09:28:45;;;;;;;;;;;28.80;99.90;;;;;;5055144;28;19925;-85
2023/08/20 09:31:12;;;;;;;;;;;28.80;99.90;;;;;;5055550;28;19926;-86
2023/08/20 09:33:48;;;;;;;;;;;28.80;99.90;;;;;;5022834;28;20507;-86
2023/08/20 09:36:14;;;;;;;;;;;28.80;99.90;;;;;;5036390;28;19933;-85
2023/08/20 09:38:39;;;;;;;;;;;28.70;99.90;;;;;;5020893;28;19929;-86
2023/08/20 09:41:05;;;;;;;;;;;28.70;99.90;;;;;;5021385;28;20380;-87
2023/08/20 09:43:32;;;;;;;;;;;28.90;99.90;;;;;;5020485;28;19929;-85
2023/08/20 09:46:01;;;;;;;;;;;28.90;99.80;;;;;;5063471;28;20322;-85
2023/08/20 09:48:28;;;;;;;;;;;29.10;99.90;;;;;;5022001;28;19929;-83
2023/08/20 09:50:57;;;;;;;;;;;29.10;97.70;;;;;;5031888;28;19933;-86
2023/08/20 09:53:27;;;;;;;;;;;29.00;99.90;;;;;;5039304;28;20001;-86
2023/08/20 09:55:55;;;;;;;;;;;28.90;98.40;;;;;;5019119;28;19933;-88
2023/08/20 09:58:25;;;;;;;;;;;29.00;99.90;;;;;;5021529;28;19983;-86
2023/08/20 10:00:51;;;;;;;;;;;29.00;99.90;;;;;;5033272;28;19964;-86
2023/08/20 10:03:17;;;;;;;;;;;28.90;99.90;;;;;;5024720;28;20544;-86
2023/08/20 10:05:44;;;;;;;;;;;28.90;99.90;;;;;;5020438;28;20012;-86
2023/08/20 10:08:10;;;;;;;;;;;28.90;98.70;;;;;;5022033;28;19925;-85
2023/08/20 10:10:35;;;;;;;;;;;28.90;99.30;;;;;;5036636;28;19929;-82
2023/08/20 10:13:02;;;;;;;;;;;28.90;98.40;;;;;;5065509;28;19933;-86
2023/08/20 10:15:28;;;;;;;;;;;29.00;98.60;;;;;;5048120;28;20036;-86
2023/08/20 10:17:57;;;;;;;;;;;29.10;97.30;;;;;;5021052;28;19960;-87
2023/08/20 10:20:22;;;;;;;;;;;29.10;99.30;;;;;;5021675;28;19956;-87
2023/08/20 10:22:50;;;;;;;;;;;29.20;99.90;;;;;;5033704;28;19925;-86
2023/08/20 10:25:22;;;;;;;;;;;29.10;99.90;;;;;;5040392;28;20478;-84
2023/08/20 10:27:48;;;;;;;;;;;28.90;97.40;;;;;;5015087;28;19929;-86
2023/08/20 10:30:20;;;;;;;;;;;28.80;98.90;;;;;;5052215;28;20026;-85
2023/08/20 10:32:46;;;;;;;;;;;28.70;99.90;;;;;;5021650;28;19959;-84
2023/08/20 10:35:12;;;;;;;;;;;28.60;99.90;;;;;;5015405;28;19932;-85
2023/08/20 10:37:40;;;;;;;;;;;28.40;99.70;;;;;;4997472;28;19929;-87
2023/08/20 10:40:06;;;;;;;;;;;28.40;99.90;;;;;;5049576;28;20418;-86
2023/08/20 10:42:39;;;;;;;;;;;28.30;98.90;;;;;;5000133;28;20299;-87
2023/08/20 10:45:08;;;;;;;;;;;28.30;99.90;;;;;;5064355;28;19964;-88
2023/08/20 10:47:37;;;;;;;;;;;28.30;99.90;;;;;;5018652;28;19933;-87
2023/08/20 10:50:03;;;;;;;;;;;28.40;99.90;;;;;;5019367;28;19932;-88
2023/08/20 10:52:28;;;;;;;;;;;28.40;98.00;;;;;;5040209;28;19929;-90
2023/08/20 10:54:55;;;;;;;;;;;28.30;99.90;;;;;;5022806;28;19944;-87
2023/08/20 10:57:21;;;;;;;;;;;28.10;95.50;;;;;;5036411;28;19929;-87
2023/08/20 10:59:58;;;;;;;;;;;28.10;99.40;;;;;;5034726;28;19979;-83
2023/08/20 11:02:24;;;;;;;;;;;28.10;98.70;;;;;;5033566;28;20448;-89
2023/08/20 11:04:50;;;;;;;;;;;27.90;97.20;;;;;;5049435;28;19925;-86
2023/08/20 11:07:19;;;;;;;;;;;27.80;95.00;;;;;;5032979;28;19947;-87
2023/08/20 11:09:46;;;;;;;;;;;27.70;94.90;;;;;;5021351;28;20332;-89
2023/08/20 11:12:16;;;;;;;;;;;27.70;96.90;;;;;;5033835;28;19925;-87
2023/08/20 11:14:41;;;;;;;;;;;27.80;97.80;;;;;;5019786;28;19925;-89
2023/08/20 11:17:08;;;;;;;;;;;27.90;97.70;;;;;;5008294;28;19968;-87
2023/08/20 11:19:33;;;;;;;;;;;28.10;97.90;;;;;;5019754;28;19937;-86
2023/08/20 11:21:59;;;;;;;;;;;28.10;97.00;;;;;;4997003;28;19925;-88
2023/08/20 11:24:28;;;;;;;;;;;28.10;97.00;;;;;;5051965;28;19929;-89
2023/08/20 11:26:55;;;;;;;;;;;28.00;93.80;;;;;;5019045;28;19929;-89
2023/08/20 11:29:21;;;;;;;;;;;28.00;95.40;;;;;;5021205;28;19972;-88
2023/08/20 11:31:50;;;;;;;;;;;28.00;94.50;;;;;;4999098;28;19925;-89
2023/08/20 11:34:15;;;;;;;;;;;28.00;96.70;;;;;;5064572;28;19925;-89
2023/08/20 11:36:41;;;;;;;;;;;28.00;94.90;;;;;;5019409;28;20071;-87
2023/08/20 11:39:07;;;;;;;;;;;28.00;96.40;;;;;;5020590;28;19940;-88
2023/08/20 11:41:36;;;;;;;;;;;28.00;96.30;;;;;;5033582;28;19940;-88
2023/08/20 11:44:03;;;;;;;;;;;28.10;96.90;;;;;;5016821;28;19929;-88
2023/08/20 11:46:28;;;;;;;;;;;28.20;96.50;;;;;;5006773;28;19925;-88
2023/08/20 11:49:07;;;;;;;;;;;28.20;96.20;;;;;;5016849;28;20476;-86
2023/08/20 11:51:40;;;;;;;;;;;28.20;97.40;;;;;;5020049;28;19933;-86
2023/08/20 11:54:07;;;;;;;;;;;28.20;95.50;;;;;;5019655;28;19972;-87
2023/08/20 11:56:33;;;;;;;;;;;28.20;96.40;;;;;;5018620;28;19929;-87
2023/08/20 11:59:00;;;;;;;;;;;28.30;97.00;;;;;;5020757;28;19925;-89
2023/08/20 12:01:29;;;;;;;;;;;28.40;94.70;;;;;;5023475;28;19949;-87
2023/08/20 12:03:59;;;;;;;;;;;28.50;96.80;;;;;;5022018;28;20000;-88
2023/08/20 12:06:28;;;;;;;;;;;28.60;96.30;;;;;;5024484;28;19929;-86
2023/08/20 12:08:54;;;;;;;;;;;28.50;96.00;;;;;;5023146;28;19928;-89
2023/08/20 12:11:23;;;;;;;;;;;28.50;96.50;;;;;;5006006;28;19929;-89
2023/08/20 12:13:48;;;;;;;;;;;28.20;96.70;;;;;;5048528;28;19929;-84
2023/08/20 12:16:14;;;;;;;;;;;28.00;96.70;;;;;;5034019;28;20009;-85
2023/08/20 12:18:40;;;;;;;;;;;27.80;96.80;;;;;;5052319;28;19929;-85
2023/08/20 12:21:05;;;;;;;;;;;27.80;97.20;;;;;;5037345;28;19964;-84
2023/08/20 12:23:31;;;;;;;;;;;27.80;96.40;;;;;;5007825;28;20490;-86
2023/08/20 12:25:57;;;;;;;;;;;27.70;96.00;;;;;;5019866;28;20513;-87
2023/08/20 12:28:22;;;;;;;;;;;27.70;96.10;;;;;;5035833;28;19964;-86
2023/08/20 12:30:48;;;;;;;;;;;28.00;97.80;;;;;;5002837;28;19992;-88
2023/08/20 12:33:13;;;;;;;;;;;28.10;96.00;;;;;;5019731;28;19928;-86
2023/08/20 12:35:39;;;;;;;;;;;28.20;94.90;;;;;;5000006;28;20001;-83
2023/08/20 12:38:05;;;;;;;;;;;28.10;93.90;;;;;;5020329;28;19931;-86
2023/08/20 12:40:30;;;;;;;;;;;28.20;95.70;;;;;;5034860;28;19929;-84
2023/08/20 12:42:56;;;;;;;;;;;28.30;93.00;;;;;;5052800;28;19937;-86
2023/08/20 12:45:21;;;;;;;;;;;28.40;94.20;;;;;;5016463;28;19925;-86
2023/08/20 12:47:47;;;;;;;;;;;28.50;92.90;;;;;;5032345;28;20308;-89
2023/08/20 12:50:14;;;;;;;;;;;28.50;93.10;;;;;;5002059;28;19953;-84
2023/08/20 12:52:40;;;;;;;;;;;28.60;94.60;;;;;;5016359;28;19925;-85
2023/08/20 12:55:05;;;;;;;;;;;28.60;95.00;;;;;;5040437;28;19925;-87
2023/08/20 12:57:33;;;;;;;;;;;28.70;91.80;;;;;;5022831;28;20008;-87
2023/08/20 12:59:59;;;;;;;;;;;28.60;93.60;;;;;;5023789;28;20599;-86
2023/08/20 13:02:25;;;;;;;;;;;28.60;93.30;;;;;;5019753;28;19929;-87
2023/08/20 13:04:51;;;;;;;;;;;28.50;92.80;;;;;;5019987;28;20380;-88
2023/08/20 13:07:16;;;;;;;;;;;28.50;93.50;;;;;;5021204;28;19929;-88
2023/08/20 13:09:43;;;;;;;;;;;28.50;93.40;;;;;;5007103;28;19932;-89
2023/08/20 13:12:12;;;;;;;;;;;28.50;91.70;;;;;;5052378;28;19977;-82
2023/08/20 13:14:38;;;;;;;;;;;28.30;91.30;;;;;;5072686;28;19926;-84
2023/08/20 13:17:04;;;;;;;;;;;27.80;92.20;;;;;;5038128;28;20068;-85
2023/08/20 13:19:29;;;;;;;;;;;27.60;92.40;;;;;;5052536;28;19948;-74
2023/08/20 13:21:55;;;;;;;;;;;27.40;93.20;;;;;;5070803;28;20063;-79
2023/08/20 13:24:21;;;;;;;;;;;27.40;94.60;;;;;;5039339;28;19925;-80
2023/08/20 13:26:46;;;;;;;;;;;27.60;91.80;;;;;;5040606;28;20333;-79
2023/08/20 13:29:12;;;;;;;;;;;27.70;92.70;;;;;;5073820;28;20296;-80
2023/08/20 13:31:38;;;;;;;;;;;27.50;91.70;;;;;;5030569;28;20381;-79
2023/08/20 13:34:03;;;;;;;;;;;27.30;90.40;;;;;;5068253;28;19937;-79
2023/08/20 13:36:29;;;;;;;;;;;27.20;92.50;;;;;;5040802;28;19925;-80
2023/08/20 13:38:55;;;;;;;;;;;27.30;91.30;;;;;;5039220;28;20505;-80
2023/08/20 13:41:21;;;;;;;;;;;27.30;90.10;;;;;;5040759;28;19965;-80
2023/08/20 13:43:47;;;;;;;;;;;27.40;88.60;;;;;;5021805;28;19932;-81
2023/08/20 13:46:12;;;;;;;;;;;27.40;90.70;;;;;;5057422;28;19925;-79
2023/08/20 13:48:38;;;;;;;;;;;27.40;90.40;;;;;;5041044;28;19980;-81
2023/08/20 13:51:03;;;;;;;;;;;27.40;86.70;;;;;;5029777;28;19928;-80
2023/08/20 13:53:29;;;;;;;;;;;27.40;91.10;;;;;;5060000;28;19925;-79
2023/08/20 13:55:55;;;;;;;;;;;27.40;91.20;;;;;;5040947;28;19925;-80
2023/08/20 13:58:21;;;;;;;;;;;27.40;88.00;;;;;;5057268;28;20327;-79
2023/08/20 14:00:46;;;;;;;;;;;27.40;90.30;;;;;;5072039;28;19929;-81
2023/08/20 14:03:12;;;;;;;;;;;27.30;88.40;;;;;;5040592;28;19932;-80
2023/08/20 14:05:37;;;;;;;;;;;27.20;88.20;;;;;;5053891;28;19939;-81
2023/08/20 14:08:03;;;;;;;;;;;27.20;86.80;;;;;;5040321;28;20004;-81
2023/08/20 14:10:29;;;;;;;;;;;27.00;84.70;;;;;;5046782;28;19925;-79